sensor_id;sensor_type;location;lat;lon;timestamp;pressure;altitude;pressure_sealevel;temperature;humidity
76352;BME280;65179;47.786;19.138;2023-06-10T00:01:06;99929.28;;;18.81;85.34
76352;BME280;65179;47.786;19.138;2023-06-10T00:03:35;99929.84;;;18.78;85.39
76352;BME280;65179;47.786;19.138;2023-06-10T00:06:01;99921.97;;;18.66;86.01
76352;BME280;65179;47.786;19.138;2023-06-10T00:08:27;99920.31;;;18.60;86.34
76352;BME280;65179;47.786;19.138;2023-06-10T00:10:54;99922.81;;;18.62;86.19
76352;BME280;65179;47.786;19.138;2023-06-10T00:13:19;99923.91;;;18.61;86.02
76352;BME280;65179;47.786;19.138;2023-06-10T00:15:45;99921.69;;;18.63;85.68
76352;BME280;65179;47.786;19.138;2023-06-10T00:18:10;99920.06;;;18.62;85.65
76352;BME280;65179;47.786;19.138;2023-06-10T00:20:36;99925.03;;;18.60;85.68
76352;BME280;65179;47.786;19.138;2023-06-10T00:23:03;99912.75;;;18.32;86.09
76352;BME280;65179;47.786;19.138;2023-06-10T00:25:28;99915.78;;;18.36;86.23
76352;BME280;65179;47.786;19.138;2023-06-10T00:27:54;99924.06;;;18.26;86.65
76352;BME280;65179;47.786;19.138;2023-06-10T00:30:20;99923.19;;;18.30;86.45
76352;BME280;65179;47.786;19.138;2023-06-10T00:32:46;99912.78;;;18.27;86.37
76352;BME280;65179;47.786;19.138;2023-06-10T00:35:11;99908.13;;;18.28;86.47
76352;BME280;65179;47.786;19.138;2023-06-10T00:37:37;99909.22;;;18.27;86.82
76352;BME280;65179;47.786;19.138;2023-06-10T00:40:04;99910.81;;;18.33;86.74
76352;BME280;65179;47.786;19.138;2023-06-10T00:42:29;99908.38;;;18.31;86.55
76352;BME280;65179;47.786;19.138;2023-06-10T00:44:55;99903.16;;;18.25;86.64
76352;BME280;65179;47.786;19.138;2023-06-10T00:47:21;99910.88;;;18.28;86.42
76352;BME280;65179;47.786;19.138;2023-06-10T00:49:47;99915.00;;;18.25;87.05
76352;BME280;65179;47.786;19.138;2023-06-10T00:52:14;99914.16;;;18.25;86.80
76352;BME280;65179;47.786;19.138;2023-06-10T00:54:41;99908.41;;;18.21;87.13
76352;BME280;65179;47.786;19.138;2023-06-10T00:57:07;99913.34;;;18.24;87.06
76352;BME280;65179;47.786;19.138;2023-06-10T00:59:32;99907.06;;;18.18;86.99
76352;BME280;65179;47.786;19.138;2023-06-10T01:01:58;99913.38;;;18.14;87.20
76352;BME280;65179;47.786;19.138;2023-06-10T01:04:24;99913.38;;;18.14;87.13
76352;BME280;65179;47.786;19.138;2023-06-10T01:09:50;99915.31;;;18.18;86.59
76352;BME280;65179;47.786;19.138;2023-06-10T01:15:17;99912.88;;;18.07;87.09
76352;BME280;65179;47.786;19.138;2023-06-10T01:18:03;99909.28;;;18.06;86.96
76352;BME280;65179;47.786;19.138;2023-06-10T01:20:30;99910.41;;;18.00;87.45
76352;BME280;65179;47.786;19.138;2023-06-10T01:22:58;99909.31;;;18.01;87.45
76352;BME280;65179;47.786;19.138;2023-06-10T01:25:26;99906.28;;;18.03;87.69
76352;BME280;65179;47.786;19.138;2023-06-10T01:31:03;99899.97;;;18.02;87.46
76352;BME280;65179;47.786;19.138;2023-06-10T01:33:36;99909.31;;;18.01;87.38
76352;BME280;65179;47.786;19.138;2023-06-10T01:36:03;99911.81;;;17.93;87.61
76352;BME280;65179;47.786;19.138;2023-06-10T01:38:37;99915.91;;;18.05;87.06
76352;BME280;65179;47.786;19.138;2023-06-10T01:41:05;99912.06;;;17.96;87.53
76352;BME280;65179;47.786;19.138;2023-06-10T01:43:34;99919.78;;;17.94;87.29
76352;BME280;65179;47.786;19.138;2023-06-10T01:46:00;99915.38;;;17.98;87.27
76352;BME280;65179;47.786;19.138;2023-06-10T01:48:26;99924.72;;;17.92;87.69
76352;BME280;65179;47.786;19.138;2023-06-10T01:50:52;99919.78;;;17.89;87.91
76352;BME280;65179;47.786;19.138;2023-06-10T01:53:18;99909.91;;;17.88;87.93
76352;BME280;65179;47.786;19.138;2023-06-10T01:55:44;99917.06;;;17.79;88.38
76352;BME280;65179;47.786;19.138;2023-06-10T01:58:09;99917.34;;;17.83;88.45
76352;BME280;65179;47.786;19.138;2023-06-10T02:00:35;99910.50;;;17.75;88.40
76352;BME280;65179;47.786;19.138;2023-06-10T02:03:00;99918.75;;;17.75;88.49
76352;BME280;65179;47.786;19.138;2023-06-10T02:05:26;99912.41;;;17.70;88.76
76352;BME280;65179;47.786;19.138;2023-06-10T02:07:51;99917.06;;;17.79;88.22
76352;BME280;65179;47.786;19.138;2023-06-10T02:10:16;99915.44;;;17.68;88.53
76352;BME280;65179;47.786;19.138;2023-06-10T02:12:42;99912.69;;;17.63;88.63
76352;BME280;65179;47.786;19.138;2023-06-10T02:15:07;99922.59;;;17.69;88.25
76352;BME280;65179;47.786;19.138;2023-06-10T02:17:33;99911.06;;;17.62;88.34
76352;BME280;65179;47.786;19.138;2023-06-10T02:19:58;99919.31;;;17.62;88.16
76352;BME280;65179;47.786;19.138;2023-06-10T02:22:25;99913.81;;;17.57;88.38
76352;BME280;65179;47.786;19.138;2023-06-10T02:24:50;99923.19;;;17.51;88.43
76352;BME280;65179;47.786;19.138;2023-06-10T02:27:16;99918.78;;;17.55;88.46
76352;BME280;65179;47.786;19.138;2023-06-10T02:29:42;99918.22;;;17.53;88.30
76352;BME280;65179;47.786;19.138;2023-06-10T02:32:08;99920.97;;;17.53;88.31
76352;BME280;65179;47.786;19.138;2023-06-10T02:34:34;99922.06;;;17.52;88.07
76352;BME280;65179;47.786;19.138;2023-06-10T02:37:00;99926.47;;;17.53;87.88
76352;BME280;65179;47.786;19.138;2023-06-10T02:39:26;99919.59;;;17.35;88.06
76352;BME280;65179;47.786;19.138;2023-06-10T02:41:51;99920.13;;;17.37;88.42
76352;BME280;65179;47.786;19.138;2023-06-10T02:44:18;99921.50;;;17.35;88.32
76352;BME280;65179;47.786;19.138;2023-06-10T02:46:43;99915.19;;;17.39;88.25
76352;BME280;65179;47.786;19.138;2023-06-10T02:49:09;99919.56;;;17.30;88.63
76352;BME280;65179;47.786;19.138;2023-06-10T02:51:34;99911.63;;;17.29;88.77
76352;BME280;65179;47.786;19.138;2023-06-10T02:54:01;99913.28;;;17.10;89.41
76352;BME280;65179;47.786;19.138;2023-06-10T02:56:26;99916.03;;;17.10;89.22
76352;BME280;65179;47.786;19.138;2023-06-10T02:58:52;99919.56;;;17.15;88.92
76352;BME280;65179;47.786;19.138;2023-06-10T03:01:18;99917.97;;;17.19;88.69
76352;BME280;65179;47.786;19.138;2023-06-10T03:03:44;99919.31;;;17.22;88.60
76352;BME280;65179;47.786;19.138;2023-06-10T03:06:12;99919.88;;;17.19;88.68
76352;BME280;65179;47.786;19.138;2023-06-10T03:08:38;99924.81;;;17.17;88.36
76352;BME280;65179;47.786;19.138;2023-06-10T03:11:04;99922.63;;;17.19;88.19
76352;BME280;65179;47.786;19.138;2023-06-10T03:13:29;99920.41;;;17.21;88.02
76352;BME280;65179;47.786;19.138;2023-06-10T03:15:55;99912.75;;;17.13;88.18
76352;BME280;65179;47.786;19.138;2023-06-10T03:18:20;99921.53;;;17.15;88.39
76352;BME280;65179;47.786;19.138;2023-06-10T03:20:48;99923.13;;;17.11;88.60
76352;BME280;65179;47.786;19.138;2023-06-10T03:23:13;99918.22;;;17.08;87.99
76352;BME280;65179;47.786;19.138;2023-06-10T03:25:39;99932.50;;;17.10;87.97
76352;BME280;65179;47.786;19.138;2023-06-10T03:28:04;99928.91;;;17.14;88.00
76352;BME280;65179;47.786;19.138;2023-06-10T03:30:30;99939.59;;;17.11;88.79
76352;BME280;65179;47.786;19.138;2023-06-10T03:32:55;99936.59;;;17.07;89.03
76352;BME280;65179;47.786;19.138;2023-06-10T03:35:20;99934.69;;;17.13;88.47
76352;BME280;65179;47.786;19.138;2023-06-10T03:37:46;99934.13;;;17.06;88.87
76352;BME280;65179;47.786;19.138;2023-06-10T03:40:11;99938.53;;;17.17;88.32
76352;BME280;65179;47.786;19.138;2023-06-10T03:42:37;99937.41;;;17.18;88.49
76352;BME280;65179;47.786;19.138;2023-06-10T03:45:03;99941.25;;;17.12;88.84
76352;BME280;65179;47.786;19.138;2023-06-10T03:47:36;99942.91;;;17.03;89.22
76352;BME280;65179;47.786;19.138;2023-06-10T03:50:03;99954.44;;;17.10;89.18
76352;BME280;65179;47.786;19.138;2023-06-10T03:52:29;99955.81;;;17.12;88.97
76352;BME280;65179;47.786;19.138;2023-06-10T03:54:54;99954.41;;;17.05;89.79
76352;BME280;65179;47.786;19.138;2023-06-10T03:57:20;99951.69;;;17.10;89.82
76352;BME280;65179;47.786;19.138;2023-06-10T03:59:45;99957.16;;;17.05;90.10
76352;BME280;65179;47.786;19.138;2023-06-10T04:02:11;99958.81;;;17.01;90.56
76352;BME280;65179;47.786;19.138;2023-06-10T04:04:36;99950.88;;;17.04;90.45
76352;BME280;65179;47.786;19.138;2023-06-10T04:07:03;99945.94;;;17.01;90.74
76352;BME280;65179;47.786;19.138;2023-06-10T04:09:29;99948.97;;;17.15;90.17
76352;BME280;65179;47.786;19.138;2023-06-10T04:11:54;99955.25;;;17.20;90.20
76352;BME280;65179;47.786;19.138;2023-06-10T04:14:20;99944.53;;;17.09;90.63
76352;BME280;65179;47.786;19.138;2023-06-10T04:16:45;99948.13;;;17.14;90.81
76352;BME280;65179;47.786;19.138;2023-06-10T04:19:10;99948.97;;;17.25;90.65
76352;BME280;65179;47.786;19.138;2023-06-10T04:21:36;99952.50;;;17.30;90.27
76352;BME280;65179;47.786;19.138;2023-06-10T04:24:01;99945.66;;;17.38;89.99
76352;BME280;65179;47.786;19.138;2023-06-10T04:26:27;99936.34;;;17.34;90.46
76352;BME280;65179;47.786;19.138;2023-06-10T04:28:52;99934.13;;;17.36;90.50
76352;BME280;65179;47.786;19.138;2023-06-10T04:31:18;99946.19;;;17.35;90.73
76352;BME280;65179;47.786;19.138;2023-06-10T04:33:44;99945.13;;;17.36;90.64
76352;BME280;65179;47.786;19.138;2023-06-10T04:36:10;99941.28;;;17.27;91.08
76352;BME280;65179;47.786;19.138;2023-06-10T04:38:35;99953.06;;;17.27;91.18
76352;BME280;65179;47.786;19.138;2023-06-10T04:41:01;99947.28;;;17.39;90.92
76352;BME280;65179;47.786;19.138;2023-06-10T04:43:27;99949.50;;;17.42;91.14
76352;BME280;65179;47.786;19.138;2023-06-10T04:45:54;99952.00;;;17.54;91.00
76352;BME280;65179;47.786;19.138;2023-06-10T04:48:19;99947.31;;;17.64;90.97
76352;BME280;65179;47.786;19.138;2023-06-10T04:50:45;99952.22;;;17.82;90.29
76352;BME280;65179;47.786;19.138;2023-06-10T04:53:10;99943.69;;;17.89;90.02
76352;BME280;65179;47.786;19.138;2023-06-10T04:55:36;99941.47;;;17.96;89.85
76352;BME280;65179;47.786;19.138;2023-06-10T04:58:01;99939.56;;;17.96;89.96
76352;BME280;65179;47.786;19.138;2023-06-10T05:00:27;99937.31;;;18.08;89.66
76352;BME280;65179;47.786;19.138;2023-06-10T05:02:53;99937.31;;;18.08;89.81
76352;BME280;65179;47.786;19.138;2023-06-10T05:05:18;99941.13;;;18.17;89.44
76352;BME280;65179;47.786;19.138;2023-06-10T05:07:44;99943.62;;;18.19;89.54
76352;BME280;65179;47.786;19.138;2023-06-10T05:10:10;99937.88;;;18.05;89.94
76352;BME280;65179;47.786;19.138;2023-06-10T05:12:38;99945.63;;;17.83;90.67
76352;BME280;65179;47.786;19.138;2023-06-10T05:15:05;99941.50;;;17.81;90.82
76352;BME280;65179;47.786;19.138;2023-06-10T05:17:31;99941.53;;;17.71;90.82
76352;BME280;65179;47.786;19.138;2023-06-10T05:19:56;99941.53;;;17.71;91.29
76352;BME280;65179;47.786;19.138;2023-06-10T05:22:22;99951.66;;;17.80;91.17
76352;BME280;65179;47.786;19.138;2023-06-10T05:24:50;99948.91;;;17.85;90.61
76352;BME280;65179;47.786;19.138;2023-06-10T05:27:16;99940.59;;;18.15;89.66
76352;BME280;65179;47.786;19.138;2023-06-10T05:29:42;99940.53;;;18.31;88.90
76352;BME280;65179;47.786;19.138;2023-06-10T05:32:07;99937.75;;;18.41;87.85
76352;BME280;65179;47.786;19.138;2023-06-10T05:34:33;99938.56;;;18.46;88.02
76352;BME280;65179;47.786;19.138;2023-06-10T05:36:59;99945.88;;;18.66;87.39
76352;BME280;65179;47.786;19.138;2023-06-10T05:39:25;99944.53;;;18.63;87.15
76352;BME280;65179;47.786;19.138;2023-06-10T05:41:50;99942.91;;;18.57;87.61
76352;BME280;65179;47.786;19.138;2023-06-10T05:44:16;99945.41;;;18.44;88.01
76352;BME280;65179;47.786;19.138;2023-06-10T05:46:41;99944.59;;;18.53;88.11
76352;BME280;65179;47.786;19.138;2023-06-10T05:49:06;99945.38;;;18.54;88.00
76352;BME280;65179;47.786;19.138;2023-06-10T05:51:32;99956.37;;;18.54;88.24
76352;BME280;65179;47.786;19.138;2023-06-10T05:53:57;99954.75;;;18.58;88.46
76352;BME280;65179;47.786;19.138;2023-06-10T05:56:23;99952.31;;;18.51;87.74
76352;BME280;65179;47.786;19.138;2023-06-10T05:58:49;99960.50;;;18.56;87.99
76352;BME280;65179;47.786;19.138;2023-06-10T06:01:14;99956.28;;;18.74;87.38
76352;BME280;65179;47.786;19.138;2023-06-10T06:03:40;99957.31;;;18.88;86.72
76352;BME280;65179;47.786;19.138;2023-06-10T06:06:06;99962.00;;;18.82;87.01
76352;BME280;65179;47.786;19.138;2023-06-10T06:08:32;99956.16;;;18.94;86.25
76352;BME280;65179;47.786;19.138;2023-06-10T06:10:57;99959.03;;;18.79;86.98
76352;BME280;65179;47.786;19.138;2023-06-10T06:13:23;99957.25;;;18.98;86.46
76352;BME280;65179;47.786;19.138;2023-06-10T06:15:49;99962.09;;;19.11;85.63
76352;BME280;65179;47.786;19.138;2023-06-10T06:18:14;99956.09;;;19.04;85.41
76352;BME280;65179;47.786;19.138;2023-06-10T06:20:40;99961.75;;;19.23;85.19
76352;BME280;65179;47.786;19.138;2023-06-10T06:23:05;99955.94;;;19.24;84.19
76352;BME280;65179;47.786;19.138;2023-06-10T06:25:31;99954.78;;;19.35;83.77
76352;BME280;65179;47.786;19.138;2023-06-10T06:27:57;99955.81;;;19.44;83.52
76352;BME280;65179;47.786;19.138;2023-06-10T06:30:22;99958.50;;;19.49;83.75
76352;BME280;65179;47.786;19.138;2023-06-10T06:32:47;99961.91;;;19.41;83.67
76352;BME280;65179;47.786;19.138;2023-06-10T06:35:13;99965.97;;;19.49;83.03
76352;BME280;65179;47.786;19.138;2023-06-10T06:37:38;99959.56;;;19.53;82.85
76352;BME280;65179;47.786;19.138;2023-06-10T06:40:04;99961.72;;;19.61;83.02
76352;BME280;65179;47.786;19.138;2023-06-10T06:42:30;99962.44;;;19.43;83.19
76352;BME280;65179;47.786;19.138;2023-06-10T06:44:55;99966.00;;;19.44;83.16
76352;BME280;65179;47.786;19.138;2023-06-10T06:47:21;99972.47;;;19.58;83.31
76352;BME280;65179;47.786;19.138;2023-06-10T06:49:47;99975.78;;;19.60;82.50
76352;BME280;65179;47.786;19.138;2023-06-10T06:52:13;99976.69;;;19.50;82.50
76352;BME280;65179;47.786;19.138;2023-06-10T06:54:38;99977.47;;;19.56;82.09
76352;BME280;65179;47.786;19.138;2023-06-10T06:57:04;99980.06;;;19.42;82.21
76352;BME280;65179;47.786;19.138;2023-06-10T06:59:30;99980.53;;;19.49;82.30
76352;BME280;65179;47.786;19.138;2023-06-10T07:01:56;99971.69;;;19.57;82.16
76352;BME280;65179;47.786;19.138;2023-06-10T07:04:21;99977.25;;;19.81;81.80
76352;BME280;65179;47.786;19.138;2023-06-10T07:06:48;99971.81;;;20.00;81.00
76352;BME280;65179;47.786;19.138;2023-06-10T07:09:13;99981.62;;;20.11;79.99
76352;BME280;65179;47.786;19.138;2023-06-10T07:11:39;99971.53;;;20.25;79.36
76352;BME280;65179;47.786;19.138;2023-06-10T07:14:04;99977.97;;;20.20;79.54
76352;BME280;65179;47.786;19.138;2023-06-10T07:16:30;99980.41;;;20.46;80.31
76352;BME280;65179;47.786;19.138;2023-06-10T07:18:55;99973.41;;;20.53;79.96
76352;BME280;65179;47.786;19.138;2023-06-10T07:21:21;99975.00;;;20.59;78.75
76352;BME280;65179;47.786;19.138;2023-06-10T07:23:48;99974.81;;;20.74;78.56
76352;BME280;65179;47.786;19.138;2023-06-10T07:26:14;99982.50;;;20.96;77.19
76352;BME280;65179;47.786;19.138;2023-06-10T07:28:40;99981.53;;;21.05;76.53
76352;BME280;65179;47.786;19.138;2023-06-10T07:31:07;99986.47;;;21.08;76.08
76352;BME280;65179;47.786;19.138;2023-06-10T07:33:32;99984.91;;;21.21;76.42
76352;BME280;65179;47.786;19.138;2023-06-10T07:35:58;99982.97;;;21.22;76.38
76352;BME280;65179;47.786;19.138;2023-06-10T07:38:25;99989.56;;;21.07;76.15
76352;BME280;65179;47.786;19.138;2023-06-10T07:40:51;99982.09;;;20.84;76.02
76352;BME280;65179;47.786;19.138;2023-06-10T07:43:17;99978.91;;;20.95;76.95
76352;BME280;65179;47.786;19.138;2023-06-10T07:45:43;99972.25;;;20.96;75.49
76352;BME280;65179;47.786;19.138;2023-06-10T07:48:10;99965.22;;;21.09;75.79
76352;BME280;65179;47.786;19.138;2023-06-10T07:50:36;99971.06;;;21.40;76.47
76352;BME280;65179;47.786;19.138;2023-06-10T07:53:02;99973.59;;;21.55;75.94
76352;BME280;65179;47.786;19.138;2023-06-10T07:55:27;99975.44;;;21.59;74.63
76352;BME280;65179;47.786;19.138;2023-06-10T07:57:54;99975.28;;;21.51;74.69
76352;BME280;65179;47.786;19.138;2023-06-10T08:00:21;99974.44;;;21.37;73.85
76352;BME280;65179;47.786;19.138;2023-06-10T08:02:47;99978.56;;;21.21;75.28
76352;BME280;65179;47.786;19.138;2023-06-10T08:05:13;99978.78;;;21.24;74.50
76352;BME280;65179;47.786;19.138;2023-06-10T08:07:40;99977.19;;;21.37;75.01
76352;BME280;65179;47.786;19.138;2023-06-10T08:10:06;99985.97;;;21.57;74.82
76352;BME280;65179;47.786;19.138;2023-06-10T08:12:33;99978.94;;;21.65;74.76
76352;BME280;65179;47.786;19.138;2023-06-10T08:14:59;99981.97;;;21.50;74.07
76352;BME280;65179;47.786;19.138;2023-06-10T08:17:25;99983.91;;;21.49;74.94
76352;BME280;65179;47.786;19.138;2023-06-10T08:19:50;99977.13;;;21.42;75.39
76352;BME280;65179;47.786;19.138;2023-06-10T08:22:16;99984.69;;;21.18;75.78
76352;BME280;65179;47.786;19.138;2023-06-10T08:24:41;99972.00;;;21.17;76.81
76352;BME280;65179;47.786;19.138;2023-06-10T08:27:07;99984.81;;;21.07;76.99
76352;BME280;65179;47.786;19.138;2023-06-10T08:29:33;99980.75;;;21.05;77.13
76352;BME280;65179;47.786;19.138;2023-06-10T08:31:59;99980.78;;;21.00;76.99
76352;BME280;65179;47.786;19.138;2023-06-10T08:34:24;99984.63;;;21.04;76.64
76352;BME280;65179;47.786;19.138;2023-06-10T08:36:50;99976.31;;;21.23;76.61
76352;BME280;65179;47.786;19.138;2023-06-10T08:39:19;99973.47;;;21.28;75.81
76352;BME280;65179;47.786;19.138;2023-06-10T08:41:57;99973.59;;;21.55;76.03
76352;BME280;65179;47.786;19.138;2023-06-10T08:44:33;99970.13;;;21.95;74.23
76352;BME280;65179;47.786;19.138;2023-06-10T08:47:39;99968.41;;;22.40;73.19
76352;BME280;65179;47.786;19.138;2023-06-10T08:51:22;99964.97;;;22.97;71.07
76352;BME280;65179;47.786;19.138;2023-06-10T08:54:37;99955.87;;;22.83;69.69
76352;BME280;65179;47.786;19.138;2023-06-10T08:57:37;99951.09;;;22.34;71.65
76352;BME280;65179;47.786;19.138;2023-06-10T09:00:50;99950.06;;;22.71;71.85
76352;BME280;65179;47.786;19.138;2023-06-10T09:03:21;99947.50;;;22.47;70.66
76352;BME280;65179;47.786;19.138;2023-06-10T09:05:54;99948.28;;;22.89;70.66
76352;BME280;65179;47.786;19.138;2023-06-10T09:08:30;99948.72;;;22.69;70.79
76352;BME280;65179;47.786;19.138;2023-06-10T09:11:06;99948.84;;;22.63;70.92
76352;BME280;65179;47.786;19.138;2023-06-10T09:13:51;99943.00;;;22.24;70.84
76352;BME280;65179;47.786;19.138;2023-06-10T09:16:19;99950.59;;;22.19;70.95
76352;BME280;65179;47.786;19.138;2023-06-10T09:19:09;99945.88;;;22.60;69.64
76352;BME280;65179;47.786;19.138;2023-06-10T09:22:04;99949.03;;;23.03;68.75
76352;BME280;65179;47.786;19.138;2023-06-10T09:24:34;99943.16;;;23.84;64.91
76352;BME280;65179;47.786;19.138;2023-06-10T09:27:13;99945.69;;;24.03;64.30
76352;BME280;65179;47.786;19.138;2023-06-10T09:29:51;99933.37;;;24.18;63.12
76352;BME280;65179;47.786;19.138;2023-06-10T09:32:18;99936.97;;;23.65;64.40
76352;BME280;65179;47.786;19.138;2023-06-10T09:34:45;99933.50;;;23.82;64.48
76352;BME280;65179;47.786;19.138;2023-06-10T09:37:22;99935.41;;;23.28;64.55
76352;BME280;65179;47.786;19.138;2023-06-10T09:40:05;99933.06;;;23.22;65.57
76352;BME280;65179;47.786;19.138;2023-06-10T09:42:35;99935.09;;;23.30;62.50
76352;BME280;65179;47.786;19.138;2023-06-10T09:45:02;99935.41;;;23.28;63.45
76352;BME280;65179;47.786;19.138;2023-06-10T09:47:28;99938.91;;;23.34;64.13
76352;BME280;65179;47.786;19.138;2023-06-10T09:49:53;99939.91;;;23.38;66.64
76352;BME280;65179;47.786;19.138;2023-06-10T09:52:26;99940.75;;;23.39;64.94
76352;BME280;65179;47.786;19.138;2023-06-10T09:54:53;99943.81;;;23.37;64.11
76352;BME280;65179;47.786;19.138;2023-06-10T09:57:21;99932.56;;;23.20;63.26
76352;BME280;65179;47.786;19.138;2023-06-10T09:59:47;99932.25;;;24.19;61.53
76352;BME280;65179;47.786;19.138;2023-06-10T10:02:14;99927.72;;;24.31;58.01
76352;BME280;65179;47.786;19.138;2023-06-10T10:04:40;99922.09;;;24.70;58.19
76352;BME280;65179;47.786;19.138;2023-06-10T10:07:05;99923.09;;;25.09;55.72
76352;BME280;65179;47.786;19.138;2023-06-10T10:09:32;99904.13;;;25.19;58.22
76352;BME280;65179;47.786;19.138;2023-06-10T10:11:59;99915.25;;;24.94;58.17
76352;BME280;65179;47.786;19.138;2023-06-10T10:14:28;99915.41;;;24.80;56.96
76352;BME280;65179;47.786;19.138;2023-06-10T10:16:57;99903.81;;;24.95;57.29
76352;BME280;65179;47.786;19.138;2023-06-10T10:19:28;99905.09;;;24.72;59.40
76352;BME280;65179;47.786;19.138;2023-06-10T10:22:00;99909.69;;;24.76;59.53
76352;BME280;65179;47.786;19.138;2023-06-10T10:24:36;99914.19;;;24.47;60.18
76352;BME280;65179;47.786;19.138;2023-06-10T10:27:10;99919.22;;;24.28;61.16
76352;BME280;65179;47.786;19.138;2023-06-10T10:29:39;99910.16;;;24.05;61.31
76352;BME280;65179;47.786;19.138;2023-06-10T10:32:06;99910.56;;;23.98;62.75
76352;BME280;65179;47.786;19.138;2023-06-10T10:34:39;99913.09;;;24.08;63.20
76352;BME280;65179;47.786;19.138;2023-06-10T10:37:08;99908.78;;;24.02;64.17
76352;BME280;65179;47.786;19.138;2023-06-10T10:39:34;99905.00;;;23.90;65.00
76352;BME280;65179;47.786;19.138;2023-06-10T10:42:02;99900.28;;;23.90;64.51
76352;BME280;65179;47.786;19.138;2023-06-10T10:44:29;99899.41;;;23.81;65.31
76352;BME280;65179;47.786;19.138;2023-06-10T10:46:55;99900.75;;;23.92;64.89
76352;BME280;65179;47.786;19.138;2023-06-10T10:49:22;99893.94;;;23.98;63.21
76352;BME280;65179;47.786;19.138;2023-06-10T10:51:58;99894.37;;;24.23;62.51
76352;BME280;65179;47.786;19.138;2023-06-10T10:54:32;99890.75;;;24.78;60.19
76352;BME280;65179;47.786;19.138;2023-06-10T10:57:11;99890.19;;;25.53;58.99
76352;BME280;65179;47.786;19.138;2023-06-10T11:02:33;99891.41;;;25.90;58.17
76352;BME280;65179;47.786;19.138;2023-06-10T11:05:01;99885.50;;;25.92;55.96
76352;BME280;65179;47.786;19.138;2023-06-10T11:07:29;99875.22;;;25.84;56.73
76352;BME280;65179;47.786;19.138;2023-06-10T11:12:42;99880.16;;;25.78;55.86
76352;BME280;65179;47.786;19.138;2023-06-10T11:15:08;99871.22;;;25.55;57.23
76352;BME280;65179;47.786;19.138;2023-06-10T11:17:34;99870.25;;;25.51;57.98
76352;BME280;65179;47.786;19.138;2023-06-10T11:19:59;99877.50;;;25.82;56.85
76352;BME280;65179;47.786;19.138;2023-06-10T11:22:25;99873.66;;;26.03;56.14
76352;BME280;65179;47.786;19.138;2023-06-10T11:24:51;99866.97;;;26.04;56.34
76352;BME280;65179;47.786;19.138;2023-06-10T11:32:30;99872.13;;;26.23;54.83
76352;BME280;65179;47.786;19.138;2023-06-10T11:34:59;99864.91;;;26.51;52.46
76352;BME280;65179;47.786;19.138;2023-06-10T11:37:25;99861.16;;;26.76;53.40
76352;BME280;65179;47.786;19.138;2023-06-10T11:39:54;99867.88;;;26.75;50.79
76352;BME280;65179;47.786;19.138;2023-06-10T11:42:21;99860.25;;;26.14;52.05
76352;BME280;65179;47.786;19.138;2023-06-10T11:44:52;99862.38;;;25.71;54.01
76352;BME280;65179;47.786;19.138;2023-06-10T11:47:18;99866.81;;;25.54;54.04
76352;BME280;65179;47.786;19.138;2023-06-10T11:49:45;99859.13;;;25.51;53.84
76352;BME280;65179;47.786;19.138;2023-06-10T11:52:11;99858.84;;;25.44;53.85
76352;BME280;65179;47.786;19.138;2023-06-10T11:54:38;99852.25;;;25.58;54.45
76352;BME280;65179;47.786;19.138;2023-06-10T11:57:03;99847.75;;;26.20;53.73
76352;BME280;65179;47.786;19.138;2023-06-10T11:59:29;99843.16;;;26.45;53.08
76352;BME280;65179;47.786;19.138;2023-06-10T12:01:56;99849.06;;;26.22;53.70
76352;BME280;65179;47.786;19.138;2023-06-10T12:04:21;99855.00;;;26.04;54.24
76352;BME280;65179;47.786;19.138;2023-06-10T12:06:53;99856.97;;;26.03;55.30
76352;BME280;65179;47.786;19.138;2023-06-10T12:09:29;99852.56;;;26.02;56.14
76352;BME280;65179;47.786;19.138;2023-06-10T12:12:03;99846.19;;;25.64;58.55
76352;BME280;65179;47.786;19.138;2023-06-10T12:14:50;99844.62;;;25.29;58.86
76352;BME280;65179;47.786;19.138;2023-06-10T12:19:57;99833.50;;;24.69;58.79
76352;BME280;65179;47.786;19.138;2023-06-10T12:22:23;99835.34;;;24.82;59.23
76352;BME280;65179;47.786;19.138;2023-06-10T12:25:01;99838.28;;;24.60;60.76
76352;BME280;65179;47.786;19.138;2023-06-10T12:27:32;99833.84;;;24.67;60.13
76352;BME280;65179;47.786;19.138;2023-06-10T12:29:58;99833.22;;;24.96;60.17
76352;BME280;65179;47.786;19.138;2023-06-10T12:32:55;99834.53;;;24.90;61.01
76352;BME280;65179;47.786;19.138;2023-06-10T12:35:24;99819.34;;;24.79;59.09
76352;BME280;65179;47.786;19.138;2023-06-10T12:38:04;99820.31;;;25.00;58.49
76352;BME280;65179;47.786;19.138;2023-06-10T12:40:36;99819.34;;;24.96;58.13
76352;BME280;65179;47.786;19.138;2023-06-10T12:43:02;99814.69;;;25.26;58.17
76352;BME280;65179;47.786;19.138;2023-06-10T12:45:38;99817.28;;;25.39;57.15
76352;BME280;65179;47.786;19.138;2023-06-10T12:50:41;99808.66;;;26.37;54.02
76352;BME280;65179;47.786;19.138;2023-06-10T12:53:08;99812.91;;;26.14;54.21
76352;BME280;65179;47.786;19.138;2023-06-10T12:55:34;99814.25;;;25.99;53.48
76352;BME280;65179;47.786;19.138;2023-06-10T12:58:00;99806.19;;;26.15;54.05
76352;BME280;65179;47.786;19.138;2023-06-10T13:00:27;99816.38;;;26.31;53.52
76352;BME280;65179;47.786;19.138;2023-06-10T13:02:56;99810.97;;;25.77;53.69
76352;BME280;65179;47.786;19.138;2023-06-10T13:05:22;99804.22;;;25.31;56.52
76352;BME280;65179;47.786;19.138;2023-06-10T13:07:48;99802.34;;;25.61;56.71
76352;BME280;65179;47.786;19.138;2023-06-10T13:10:14;99803.44;;;25.69;55.54
76352;BME280;65179;47.786;19.138;2023-06-10T13:12:41;99800.66;;;25.69;55.31
76352;BME280;65179;47.786;19.138;2023-06-10T13:15:08;99799.41;;;26.24;55.26
76352;BME280;65179;47.786;19.138;2023-06-10T13:17:33;99793.19;;;26.48;55.04
76352;BME280;65179;47.786;19.138;2023-06-10T13:20:05;99798.06;;;26.51;54.03